createdAt,value
2024-04-24T00:02:24.646Z,6.46
2024-04-24T00:04:51.370Z,6.51
2024-04-24T00:07:18.127Z,6.51
2024-04-24T00:09:44.628Z,6.51
2024-04-24T00:12:11.133Z,6.42
2024-04-24T00:14:37.632Z,6.44
2024-04-24T00:17:05.176Z,6.37
2024-04-24T00:19:31.787Z,6.42
2024-04-24T00:21:58.318Z,6.46
2024-04-24T00:24:24.820Z,6.37
2024-04-24T00:26:51.375Z,6.25
2024-04-24T00:29:18.003Z,6.29
2024-04-24T00:31:44.697Z,6.31
2024-04-24T00:34:11.243Z,6.35
2024-04-24T00:36:37.749Z,6.27
2024-04-24T00:39:04.272Z,6.29
2024-04-24T00:41:30.811Z,6.27
2024-04-24T00:43:57.332Z,6.30
2024-04-24T00:46:25.291Z,6.31
2024-04-24T00:48:53.121Z,6.24
2024-04-24T00:51:21.158Z,6.25
2024-04-24T00:53:48.190Z,6.27
2024-04-24T00:56:14.918Z,6.25
2024-04-24T00:58:41.727Z,6.26
2024-04-24T01:01:08.618Z,6.23
2024-04-24T01:03:35.186Z,6.20
2024-04-24T01:06:01.676Z,6.19
2024-04-24T01:08:28.275Z,6.24
2024-04-24T01:10:58.931Z,6.20
2024-04-24T01:13:26.293Z,6.20
2024-04-24T01:16:09.941Z,6.17
2024-04-24T01:18:39.724Z,6.14
2024-04-24T01:21:07.966Z,6.15
2024-04-24T01:23:40.854Z,6.08
2024-04-24T01:26:13.327Z,6.12
2024-04-24T01:28:39.935Z,6.18
2024-04-24T01:31:06.449Z,6.14
2024-04-24T01:33:33.017Z,6.15
2024-04-24T01:35:59.681Z,6.06
2024-04-24T01:38:26.351Z,6.11
2024-04-24T01:40:53.115Z,6.06
2024-04-24T01:43:19.657Z,6.06
2024-04-24T01:45:46.254Z,5.99
2024-04-24T01:48:12.945Z,5.89
2024-04-24T01:50:40.079Z,5.90
2024-04-24T01:53:06.981Z,5.94
2024-04-24T01:55:33.580Z,5.89
2024-04-24T01:58:00.124Z,5.84
2024-04-24T02:00:26.640Z,5.83
2024-04-24T02:02:53.260Z,5.81
2024-04-24T02:05:19.960Z,5.80
2024-04-24T02:07:46.598Z,5.69
2024-04-24T02:10:13.130Z,5.67
2024-04-24T02:12:39.770Z,5.62
2024-04-24T02:15:06.897Z,5.62
2024-04-24T02:17:33.508Z,5.60
2024-04-24T02:20:00.186Z,5.55
2024-04-24T02:22:26.878Z,5.63
2024-04-24T02:25:12.300Z,5.62
2024-04-24T02:27:38.843Z,5.58
2024-04-24T02:30:06.095Z,5.52
2024-04-24T02:32:32.770Z,5.53
2024-04-24T02:34:59.460Z,5.45
2024-04-24T02:37:26.032Z,5.49
2024-04-24T02:39:52.697Z,5.46
2024-04-24T02:42:19.208Z,5.44
2024-04-24T02:44:45.734Z,5.39
2024-04-24T02:47:12.393Z,5.42
2024-04-24T02:49:38.915Z,5.41
2024-04-24T02:52:05.511Z,5.42
2024-04-24T02:54:32.024Z,5.41
2024-04-24T02:56:58.556Z,5.41
2024-04-24T02:59:25.217Z,5.40
2024-04-24T03:01:51.808Z,5.42
2024-04-24T03:04:18.415Z,5.43
2024-04-24T03:06:45.306Z,5.46
2024-04-24T03:09:12.455Z,5.49
2024-04-24T03:11:39.971Z,5.41
2024-04-24T03:14:06.550Z,5.39
2024-04-24T03:16:33.806Z,5.33
2024-04-24T03:19:00.548Z,5.34
2024-04-24T03:21:27.128Z,5.31
2024-04-24T03:23:53.673Z,5.33
2024-04-24T03:26:20.237Z,5.40
2024-04-24T03:28:46.759Z,5.43
2024-04-24T03:31:13.471Z,5.39
2024-04-24T03:33:40.018Z,5.37
2024-04-24T03:36:06.926Z,5.35
2024-04-24T03:38:33.446Z,5.24
2024-04-24T03:40:59.984Z,5.22
2024-04-24T03:43:26.523Z,5.22
2024-04-24T03:45:53.080Z,5.23
2024-04-24T03:48:19.679Z,5.19
2024-04-24T03:50:46.299Z,5.13
2024-04-24T03:53:12.839Z,5.08
2024-04-24T03:55:39.505Z,5.09
2024-04-24T03:58:06.089Z,5.10
2024-04-24T04:00:32.585Z,5.07
2024-04-24T04:02:59.215Z,5.10
2024-04-24T04:05:25.935Z,5.04
2024-04-24T04:07:59.660Z,4.92
2024-04-24T04:10:26.227Z,4.84
2024-04-24T04:12:52.779Z,4.82
2024-04-24T04:15:19.490Z,4.75
2024-04-24T04:17:46.923Z,4.71
2024-04-24T04:20:13.765Z,4.70
2024-04-24T04:22:42.600Z,4.70
2024-04-24T04:25:09.750Z,4.69
2024-04-24T04:27:36.601Z,4.64
2024-04-24T04:30:03.455Z,4.60
2024-04-24T04:32:30.062Z,4.65
2024-04-24T04:34:56.673Z,4.70
2024-04-24T04:37:23.290Z,4.70
2024-04-24T04:39:49.814Z,4.71
2024-04-24T04:42:16.424Z,4.79
2024-04-24T04:44:42.949Z,4.82
2024-04-24T04:47:09.551Z,4.75
2024-04-24T04:49:36.104Z,4.74
2024-04-24T04:52:02.681Z,4.77
2024-04-24T04:54:29.230Z,4.80
2024-04-24T04:56:55.786Z,4.87
2024-04-24T04:59:22.489Z,4.94
2024-04-24T05:01:49.045Z,4.96
2024-04-24T05:04:15.862Z,5.00
2024-04-24T05:06:42.489Z,5.05
2024-04-24T05:09:08.997Z,5.03
2024-04-24T05:11:35.687Z,5.09
2024-04-24T05:14:02.274Z,5.12
2024-04-24T05:16:28.841Z,5.17
2024-04-24T05:18:55.470Z,5.22
2024-04-24T05:21:22.159Z,5.25
2024-04-24T05:23:49.085Z,5.28
2024-04-24T05:26:34.220Z,5.31
2024-04-24T05:29:08.811Z,5.35
2024-04-24T05:31:38.103Z,5.33
2024-04-24T05:34:05.181Z,5.35
2024-04-24T05:36:31.804Z,5.37
2024-04-24T05:38:58.311Z,5.40
2024-04-24T05:41:24.962Z,5.39
2024-04-24T05:43:51.861Z,5.37
2024-04-24T05:46:18.656Z,5.35
2024-04-24T05:48:45.441Z,5.31
2024-04-24T05:51:12.036Z,5.34
2024-04-24T05:53:38.532Z,5.32
2024-04-24T05:56:05.465Z,5.31
2024-04-24T05:58:31.984Z,5.38
2024-04-24T06:00:58.586Z,5.42
2024-04-24T06:03:25.143Z,5.49
2024-04-24T06:05:51.736Z,5.63
2024-04-24T06:08:18.274Z,5.57
2024-04-24T06:10:44.890Z,5.54
2024-04-24T06:13:11.442Z,5.53
2024-04-24T06:15:37.964Z,5.60
2024-04-24T06:18:04.859Z,5.64
2024-04-24T06:20:31.451Z,5.64
2024-04-24T06:22:58.115Z,5.68
2024-04-24T06:25:24.620Z,5.73
2024-04-24T06:27:51.206Z,5.74
2024-04-24T06:30:17.855Z,5.76
2024-04-24T06:32:44.497Z,5.81
2024-04-24T06:35:11.219Z,5.75
2024-04-24T06:37:37.835Z,5.77
2024-04-24T06:40:04.787Z,5.82
2024-04-24T06:42:31.284Z,5.91
2024-04-24T06:44:58.000Z,5.93
2024-04-24T06:47:24.608Z,6.02
2024-04-24T06:49:51.194Z,6.15
2024-04-24T06:52:17.732Z,6.25
2024-04-24T06:54:44.248Z,6.29
2024-04-24T06:57:13.286Z,6.34
2024-04-24T06:59:39.832Z,6.45
2024-04-24T07:02:06.483Z,6.50
2024-04-24T07:04:33.135Z,6.58
2024-04-24T07:07:00.003Z,6.66
2024-04-24T07:09:26.569Z,6.67
2024-04-24T07:11:53.237Z,6.71
2024-04-24T07:14:19.979Z,6.81
2024-04-24T07:16:46.521Z,6.85
2024-04-24T07:19:14.912Z,6.90
2024-04-24T07:21:41.720Z,6.94
2024-04-24T07:24:08.317Z,7.01
2024-04-24T07:26:34.830Z,7.05
2024-04-24T07:29:01.477Z,7.00
2024-04-24T07:31:29.212Z,6.97
2024-04-24T07:33:55.945Z,6.98
2024-04-24T07:36:22.502Z,6.95
2024-04-24T07:38:49.731Z,6.84
2024-04-24T07:41:16.788Z,6.78
2024-04-24T07:43:43.361Z,6.78
2024-04-24T07:46:10.495Z,6.66
2024-04-24T07:48:37.208Z,6.66
2024-04-24T07:51:04.126Z,6.59
2024-04-24T07:53:32.263Z,6.60
2024-04-24T07:56:00.062Z,6.68
2024-04-24T07:58:26.678Z,6.73
2024-04-24T08:00:53.763Z,6.83
2024-04-24T08:03:20.486Z,6.92
2024-04-24T08:05:47.110Z,6.98
2024-04-24T08:08:13.639Z,7.03
2024-04-24T08:10:40.199Z,7.11
2024-04-24T08:13:06.692Z,7.26
2024-04-24T08:15:33.232Z,7.33
2024-04-24T08:17:59.857Z,7.39
2024-04-24T08:20:26.481Z,7.40
2024-04-24T08:22:53.094Z,7.47
2024-04-24T08:25:19.671Z,7.49
2024-04-24T08:27:46.313Z,7.56
2024-04-24T08:30:12.984Z,7.74
2024-04-24T08:32:39.735Z,7.85
2024-04-24T08:35:06.637Z,7.92
2024-04-24T08:37:33.231Z,7.95
2024-04-24T08:39:59.743Z,7.87
2024-04-24T08:42:26.606Z,8.04
2024-04-24T08:44:56.039Z,8.08
2024-04-24T08:47:23.072Z,7.93
2024-04-24T08:49:50.521Z,8.01
2024-04-24T08:52:19.249Z,8.14
2024-04-24T08:54:47.233Z,8.33
2024-04-24T08:57:15.249Z,8.49
2024-04-24T08:59:43.856Z,8.43
2024-04-24T09:02:11.900Z,8.51
2024-04-24T09:04:41.564Z,8.74
2024-04-24T09:07:08.970Z,8.76
2024-04-24T09:09:35.565Z,8.63
2024-04-24T09:12:04.956Z,8.71
2024-04-24T09:14:32.416Z,8.91
2024-04-24T09:16:59.742Z,9.12
2024-04-24T09:19:26.256Z,9.26
2024-04-24T09:21:52.838Z,9.39
2024-04-24T09:24:20.025Z,9.51
2024-04-24T09:26:50.269Z,9.68
2024-04-24T09:29:17.444Z,9.71
2024-04-24T09:31:44.349Z,9.82
2024-04-24T09:34:11.815Z,9.69
2024-04-24T09:36:38.926Z,9.60
2024-04-24T09:39:09.359Z,9.72
2024-04-24T09:41:36.802Z,10.19
2024-04-24T09:44:04.055Z,10.17
2024-04-24T09:46:30.960Z,9.91
2024-04-24T09:48:58.176Z,9.63
2024-04-24T09:51:24.910Z,9.54
2024-04-24T09:53:51.567Z,9.54
2024-04-24T09:56:29.181Z,9.56
2024-04-24T09:58:56.557Z,10.05
2024-04-24T10:01:23.579Z,10.47
2024-04-24T10:03:55.583Z,10.44
2024-04-24T10:06:23.572Z,10.13
2024-04-24T10:08:51.509Z,9.76
2024-04-24T10:11:21.622Z,9.16
2024-04-24T10:13:50.349Z,8.79
2024-04-24T10:16:17.438Z,8.55
2024-04-24T10:18:46.034Z,8.39
2024-04-24T10:21:13.738Z,8.35
2024-04-24T10:23:42.363Z,8.33
2024-04-24T10:26:09.915Z,8.57
2024-04-24T10:28:38.411Z,8.89
2024-04-24T10:31:05.247Z,8.65
2024-04-24T10:33:32.973Z,8.44
2024-04-24T10:36:01.202Z,8.45
2024-04-24T10:38:32.497Z,8.96
2024-04-24T10:40:59.085Z,9.24
2024-04-24T10:43:28.055Z,9.13
2024-04-24T10:45:56.427Z,9.48
2024-04-24T10:48:23.048Z,9.83
2024-04-24T10:50:52.313Z,10.28
2024-04-24T10:53:20.202Z,10.54
2024-04-24T10:55:54.923Z,10.97
2024-04-24T10:58:23.223Z,10.83
2024-04-24T11:00:50.142Z,10.49
2024-04-24T11:03:18.462Z,10.20
2024-04-24T11:05:45.192Z,10.70
2024-04-24T11:08:20.178Z,10.99
2024-04-24T11:10:53.468Z,10.89
2024-04-24T11:13:20.202Z,11.09
2024-04-24T11:15:54.551Z,11.37
2024-04-24T11:18:28.033Z,11.61
2024-04-24T11:20:54.690Z,11.59
2024-04-24T11:23:22.283Z,11.75
2024-04-24T11:25:59.246Z,11.58
2024-04-24T11:28:28.037Z,11.63
2024-04-24T11:30:54.912Z,12.33
2024-04-24T11:33:23.510Z,12.28
2024-04-24T11:35:51.505Z,12.03
2024-04-24T11:38:18.199Z,11.67
2024-04-24T11:40:44.854Z,11.55
2024-04-24T11:43:11.646Z,11.26
2024-04-24T11:45:38.327Z,10.99
2024-04-24T11:48:07.406Z,10.79
2024-04-24T11:50:34.423Z,10.59
2024-04-24T11:53:01.403Z,10.25
2024-04-24T11:55:28.078Z,10.13
2024-04-24T11:57:54.584Z,10.07
2024-04-24T12:00:21.226Z,9.95
2024-04-24T12:02:48.062Z,10.15
2024-04-24T12:05:14.814Z,10.53
2024-04-24T12:07:44.876Z,10.63
2024-04-24T12:10:12.329Z,10.69
2024-04-24T12:12:39.117Z,10.81
2024-04-24T12:15:06.012Z,11.02
2024-04-24T12:17:32.600Z,11.10
2024-04-24T12:19:59.342Z,10.81
2024-04-24T12:22:25.919Z,10.69
2024-04-24T12:24:52.435Z,10.82
2024-04-24T12:27:22.237Z,11.25
2024-04-24T12:29:49.100Z,11.26
2024-04-24T12:32:16.992Z,11.11
2024-04-24T12:34:43.781Z,11.56
2024-04-24T12:37:10.415Z,12.03
2024-04-24T12:39:36.977Z,12.09
2024-04-24T12:42:03.519Z,12.35
2024-04-24T12:44:30.167Z,12.38
2024-04-24T12:46:56.757Z,12.23
2024-04-24T12:49:23.364Z,12.52
2024-04-24T12:51:49.934Z,12.54
2024-04-24T12:54:16.615Z,12.23
2024-04-24T12:56:43.113Z,12.26
2024-04-24T12:59:09.717Z,12.26
2024-04-24T13:01:36.297Z,12.13
2024-04-24T13:04:02.965Z,12.26
2024-04-24T13:06:30.286Z,12.37
2024-04-24T13:08:59.164Z,12.75
2024-04-24T13:11:26.375Z,13.00
2024-04-24T13:13:52.956Z,13.05
2024-04-24T13:16:19.567Z,12.65
2024-04-24T13:18:46.231Z,12.19
2024-04-24T13:21:12.927Z,11.85
2024-04-24T13:23:39.481Z,11.64
2024-04-24T13:26:05.994Z,11.34
2024-04-24T13:28:35.318Z,11.19
2024-04-24T13:31:05.636Z,11.01
2024-04-24T13:33:33.971Z,10.52
2024-04-24T13:36:00.685Z,10.30
2024-04-24T13:38:27.231Z,10.42
2024-04-24T13:40:53.812Z,10.59
2024-04-24T13:43:20.329Z,10.65
2024-04-24T13:45:46.854Z,10.74
2024-04-24T13:48:13.488Z,10.84
2024-04-24T13:50:40.120Z,10.95
2024-04-24T13:53:07.982Z,11.22
2024-04-24T13:55:34.736Z,11.52
2024-04-24T13:58:01.479Z,11.55
2024-04-24T14:00:30.387Z,11.70
2024-04-24T14:02:57.398Z,11.93
2024-04-24T14:05:24.238Z,12.08
2024-04-24T14:07:51.481Z,11.81
2024-04-24T14:10:18.030Z,11.41
2024-04-24T14:12:44.625Z,10.82
2024-04-24T14:15:11.350Z,10.45
2024-04-24T14:17:39.041Z,10.07
2024-04-24T14:20:06.294Z,9.84
2024-04-24T14:22:32.887Z,9.45
2024-04-24T14:24:59.487Z,9.26
2024-04-24T14:27:26.488Z,9.20
2024-04-24T14:29:53.035Z,9.16
2024-04-24T14:32:19.884Z,9.10
2024-04-24T14:34:46.888Z,9.05
2024-04-24T14:37:13.456Z,9.08
2024-04-24T14:39:40.065Z,9.24
2024-04-24T14:42:07.040Z,9.38
2024-04-24T14:44:33.608Z,9.25
2024-04-24T14:47:00.342Z,9.11
2024-04-24T14:49:28.585Z,9.14
2024-04-24T14:51:55.185Z,9.05
2024-04-24T14:54:21.731Z,8.96
2024-04-24T14:56:48.283Z,8.85
2024-04-24T14:59:15.164Z,8.87
2024-04-24T15:01:41.879Z,8.95
2024-04-24T15:04:08.500Z,9.04
2024-04-24T15:06:36.719Z,9.01
2024-04-24T15:09:03.332Z,8.97
2024-04-24T15:11:30.055Z,8.70
2024-04-24T15:13:56.680Z,8.58
2024-04-24T15:16:23.211Z,8.53
2024-04-24T15:18:49.877Z,8.60
2024-04-24T15:21:16.408Z,8.78
2024-04-24T15:23:46.348Z,8.98
2024-04-24T15:26:14.473Z,9.10
2024-04-24T15:28:40.983Z,9.18
2024-04-24T15:31:08.589Z,9.24
2024-04-24T15:33:35.362Z,9.15
2024-04-24T15:36:01.955Z,8.96
2024-04-24T15:38:29.035Z,8.92
2024-04-24T15:40:55.883Z,8.84
2024-04-24T15:43:22.414Z,8.80
2024-04-24T15:45:49.938Z,8.68
2024-04-24T15:48:16.782Z,8.74
2024-04-24T15:50:43.524Z,8.58
2024-04-24T15:53:10.175Z,8.53
2024-04-24T15:55:36.777Z,8.49
2024-04-24T15:58:03.400Z,8.52
2024-04-24T16:00:30.183Z,8.58
2024-04-24T16:02:56.761Z,8.55
2024-04-24T16:05:23.526Z,8.47
2024-04-24T16:07:50.079Z,8.48
2024-04-24T16:10:16.583Z,8.36
2024-04-24T16:12:43.311Z,8.19
2024-04-24T16:15:09.910Z,8.17
2024-04-24T16:17:36.642Z,8.17
2024-04-24T16:20:03.659Z,8.24
2024-04-24T16:22:30.210Z,8.27
2024-04-24T16:24:56.744Z,8.27
2024-04-24T16:27:23.263Z,8.34
2024-04-24T16:29:54.341Z,8.48
2024-04-24T16:32:21.092Z,8.56
2024-04-24T16:34:47.645Z,8.57
2024-04-24T16:37:14.811Z,8.63
2024-04-24T16:39:44.163Z,8.74
2024-04-24T16:42:10.658Z,9.01
2024-04-24T16:44:37.258Z,11.04
2024-04-24T16:47:04.012Z,10.81
2024-04-24T16:49:31.358Z,9.94
2024-04-24T16:51:57.866Z,9.41
2024-04-24T16:54:24.440Z,9.16
2024-04-24T16:56:51.128Z,9.00
2024-04-24T16:59:17.667Z,8.98
2024-04-24T17:01:44.215Z,8.88
2024-04-24T17:04:12.834Z,8.76
2024-04-24T17:06:39.507Z,8.74
2024-04-24T17:09:06.089Z,8.72
2024-04-24T17:11:33.003Z,8.61
2024-04-24T17:14:01.507Z,8.54
2024-04-24T17:16:28.042Z,8.51
2024-04-24T17:18:54.839Z,8.48
2024-04-24T17:21:21.469Z,8.39
2024-04-24T17:23:48.012Z,8.24
2024-04-24T17:26:21.148Z,8.19
2024-04-24T17:28:54.264Z,8.13
2024-04-24T17:31:20.728Z,8.12
2024-04-24T17:33:47.684Z,8.10
2024-04-24T17:36:14.891Z,8.07
2024-04-24T17:38:42.005Z,8.07
2024-04-24T17:41:09.850Z,8.12
2024-04-24T17:43:37.400Z,8.03
2024-04-24T17:46:07.435Z,7.98
2024-04-24T17:48:34.618Z,8.02
2024-04-24T17:51:01.306Z,7.96
2024-04-24T17:53:27.931Z,7.97
2024-04-24T17:55:54.605Z,7.98
2024-04-24T17:58:21.507Z,7.98
2024-04-24T18:00:48.305Z,7.93
2024-04-24T18:03:14.881Z,7.97
2024-04-24T18:05:41.474Z,8.01
2024-04-24T18:08:08.162Z,7.98
2024-04-24T18:10:34.824Z,8.00
2024-04-24T18:13:03.520Z,8.01
2024-04-24T18:15:30.080Z,7.94
2024-04-24T18:17:56.911Z,7.94
2024-04-24T18:20:23.535Z,7.93
2024-04-24T18:22:51.311Z,7.96
2024-04-24T18:25:17.853Z,7.84
2024-04-24T18:27:45.152Z,7.82
2024-04-24T18:30:11.703Z,7.86
2024-04-24T18:32:38.529Z,7.82
2024-04-24T18:35:05.720Z,7.68
2024-04-24T18:37:32.357Z,7.67
2024-04-24T18:40:00.213Z,7.63
2024-04-24T18:42:26.842Z,7.63
2024-04-24T18:44:53.418Z,7.62
2024-04-24T18:47:21.909Z,7.61
2024-04-24T18:49:48.487Z,7.56
2024-04-24T18:52:15.120Z,7.53
2024-04-24T18:54:41.791Z,7.49
2024-04-24T18:57:08.354Z,7.48
2024-04-24T18:59:34.978Z,7.44
2024-04-24T19:02:01.621Z,7.36
2024-04-24T19:04:28.200Z,7.29
2024-04-24T19:06:54.838Z,7.27
2024-04-24T19:09:21.356Z,7.29
2024-04-24T19:11:48.448Z,7.28
2024-04-24T19:14:14.983Z,7.29
2024-04-24T19:16:41.558Z,7.24
2024-04-24T19:19:08.149Z,7.21
2024-04-24T19:21:34.806Z,7.25
2024-04-24T19:24:01.357Z,7.26
2024-04-24T19:26:29.383Z,7.25
2024-04-24T19:28:56.062Z,7.26
2024-04-24T19:31:31.127Z,7.31
2024-04-24T19:33:59.690Z,7.32
2024-04-24T19:36:27.184Z,7.26
2024-04-24T19:38:53.737Z,7.27
2024-04-24T19:41:20.291Z,7.30
2024-04-24T19:43:46.832Z,7.28
2024-04-24T19:46:13.464Z,7.29
2024-04-24T19:48:40.005Z,7.26
2024-04-24T19:51:08.034Z,7.28
2024-04-24T19:53:35.706Z,7.32
2024-04-24T19:56:06.411Z,7.26
2024-04-24T19:58:34.086Z,7.25
2024-04-24T20:01:09.011Z,7.24
2024-04-24T20:03:36.395Z,7.26
2024-04-24T20:06:06.043Z,7.22
2024-04-24T20:08:33.880Z,7.19
2024-04-24T20:11:04.664Z,7.19
2024-04-24T20:13:31.415Z,7.18
2024-04-24T20:16:08.837Z,7.14
2024-04-24T20:18:38.456Z,7.13
2024-04-24T20:21:13.467Z,7.15
2024-04-24T20:23:40.441Z,7.16
2024-04-24T20:26:24.884Z,7.14
2024-04-24T20:28:52.708Z,7.14
2024-04-24T20:31:29.213Z,7.19
2024-04-24T20:33:58.778Z,6.98
2024-04-24T20:36:26.901Z,6.88
2024-04-24T20:38:54.843Z,6.84
2024-04-24T20:41:21.760Z,6.77
2024-04-24T20:43:49.413Z,6.76
2024-04-24T20:46:16.932Z,6.81
2024-04-24T20:48:43.551Z,6.81
2024-04-24T20:51:13.546Z,6.83
2024-04-24T20:53:40.210Z,6.84
2024-04-24T20:56:07.806Z,6.84
2024-04-24T20:58:34.416Z,6.83
2024-04-24T21:01:07.402Z,6.76
2024-04-24T21:03:34.367Z,6.75
2024-04-24T21:06:12.316Z,6.80
2024-04-24T21:08:39.604Z,6.78
2024-04-24T21:11:06.403Z,6.76
2024-04-24T21:13:33.041Z,6.78
2024-04-24T21:15:59.880Z,6.72
2024-04-24T21:18:26.633Z,6.73
2024-04-24T21:20:56.410Z,6.74
2024-04-24T21:23:22.968Z,6.73
2024-04-24T21:25:49.632Z,6.70
2024-04-24T21:28:16.263Z,6.67
2024-04-24T21:30:42.797Z,6.64
2024-04-24T21:33:09.423Z,6.61
2024-04-24T21:35:38.467Z,6.56
2024-04-24T21:38:05.145Z,6.52
2024-04-24T21:40:32.463Z,6.51
2024-04-24T21:42:58.961Z,6.46
2024-04-24T21:45:27.342Z,6.42
2024-04-24T21:47:55.030Z,6.39
2024-04-24T21:50:21.826Z,6.36
2024-04-24T21:52:48.479Z,6.32
2024-04-24T21:55:15.062Z,6.27
2024-04-24T21:57:41.675Z,6.26
2024-04-24T22:00:08.774Z,6.26
2024-04-24T22:02:35.375Z,6.22
2024-04-24T22:05:02.229Z,6.22
2024-04-24T22:07:28.807Z,6.18
2024-04-24T22:09:55.295Z,6.18
2024-04-24T22:12:21.933Z,6.17
2024-04-24T22:14:48.463Z,6.11
2024-04-24T22:17:19.785Z,6.05
2024-04-24T22:19:51.987Z,6.01
2024-04-24T22:22:18.688Z,5.95
2024-04-24T22:24:45.228Z,5.87
2024-04-24T22:27:11.769Z,5.85
2024-04-24T22:29:38.294Z,5.78
2024-04-24T22:32:05.276Z,5.79
2024-04-24T22:34:31.817Z,5.80
2024-04-24T22:36:58.349Z,5.85
2024-04-24T22:39:24.860Z,5.82
2024-04-24T22:41:51.495Z,5.83
2024-04-24T22:44:18.081Z,5.82
2024-04-24T22:46:44.642Z,5.82
2024-04-24T22:49:11.155Z,5.82
2024-04-24T22:51:38.625Z,5.79
2024-04-24T22:54:05.423Z,5.76
2024-04-24T22:56:33.051Z,5.73
2024-04-24T22:58:59.742Z,5.71
2024-04-24T23:01:26.343Z,5.71
2024-04-24T23:03:53.038Z,5.68
2024-04-24T23:06:19.765Z,5.66
2024-04-24T23:08:46.319Z,5.62
2024-04-24T23:11:13.607Z,5.60
2024-04-24T23:13:40.428Z,5.56
2024-04-24T23:16:07.307Z,5.56
2024-04-24T23:18:38.216Z,5.50
2024-04-24T23:21:05.926Z,5.47
2024-04-24T23:23:32.569Z,5.46
2024-04-24T23:25:59.137Z,5.40
2024-04-24T23:28:25.748Z,5.33
2024-04-24T23:30:52.363Z,5.29
2024-04-24T23:33:18.936Z,5.25
2024-04-24T23:35:46.008Z,5.23
2024-04-24T23:38:13.563Z,5.25
2024-04-24T23:40:40.046Z,5.18
2024-04-24T23:43:06.593Z,5.12
2024-04-24T23:45:33.203Z,5.11
2024-04-24T23:47:59.769Z,5.14
2024-04-24T23:50:26.382Z,5.12
2024-04-24T23:52:52.985Z,5.14
2024-04-24T23:55:19.509Z,5.12
2024-04-24T23:57:45.995Z,5.14
